Time;durP1;ratioP1;P1;durP2;ratioP2;P2;SDS_P1;SDS_P2;PMS_P1;PMS_P2;Temp;Humidity;BMP_temperature;BMP_pressure;BME280_temperature;BME280_humidity;BME280_pressure;Samples;Min_cycle;Max_cycle;Signal;HPM_P1;HPM_P2
2023/01/11 00:00:07;;;;;;;3.60;2.87;;;21.20;44.50;;;;;;5080595;27;94265;-59
2023/01/11 00:02:36;;;;;;;2.77;1.97;;;21.30;44.50;;;;;;5081015;27;92961;-59
2023/01/11 00:05:04;;;;;;;3.37;2.20;;;21.50;44.50;;;;;;5080608;27;92950;-59
2023/01/11 00:07:32;;;;;;;3.90;1.90;;;21.70;44.60;;;;;;5078806;27;92035;-58
2023/01/11 00:10:03;;;;;;;3.50;2.10;;;21.90;44.50;;;;;;5055868;27;94249;-59
2023/01/11 00:12:32;;;;;;;1.90;1.80;;;22.10;44.40;;;;;;5060269;27;94124;-59
2023/01/11 00:15:00;;;;;;;1.93;1.50;;;22.30;44.40;;;;;;5060238;27;92000;-58
2023/01/11 00:17:28;;;;;;;3.70;1.20;;;22.50;44.40;;;;;;5060412;27;92147;-58
2023/01/11 00:19:56;;;;;;;2.53;1.40;;;22.60;44.30;;;;;;5060218;27;93074;-59
2023/01/11 00:22:26;;;;;;;1.70;1.60;;;22.80;44.30;;;;;;5061468;27;93925;-58
2023/01/11 00:24:54;;;;;;;1.47;1.10;;;22.90;44.20;;;;;;5060495;27;91958;-59
2023/01/11 00:27:22;;;;;;;1.70;1.23;;;23.00;44.10;;;;;;5060480;27;91855;-59
2023/01/11 00:29:51;;;;;;;2.27;1.00;;;23.20;44.10;;;;;;5059358;27;95208;-58
2023/01/11 00:32:19;;;;;;;1.53;1.20;;;23.30;44.00;;;;;;5059372;27;94855;-59
2023/01/11 00:34:47;;;;;;;1.57;1.13;;;23.50;44.10;;;;;;5060011;27;91940;-59
2023/01/11 00:37:15;;;;;;;1.80;1.20;;;23.60;44.00;;;;;;5060033;27;91979;-59
2023/01/11 00:39:43;;;;;;;4.13;0.80;;;23.70;43.90;;;;;;5060066;27;94328;-59
2023/01/11 00:47:59;;;;;;;1.07;0.87;;;24.10;43.70;;;;;;5060162;27;91367;-57
2023/01/11 00:50:28;;;;;;;2.27;0.83;;;24.20;44.30;;;;;;5059301;27;93130;-57
2023/01/11 00:52:56;;;;;;;0.53;0.53;;;24.20;43.60;;;;;;5059666;27;94052;-57
2023/01/11 00:55:24;;;;;;;1.77;1.10;;;24.20;43.60;;;;;;5059078;27;93123;-57
2023/01/11 00:57:52;;;;;;;1.17;1.07;;;24.20;43.60;;;;;;5059874;27;92092;-57
2023/01/11 01:00:22;;;;;;;1.07;0.80;;;24.20;43.70;;;;;;5058203;27;93865;-57
2023/01/11 01:02:50;;;;;;;1.90;0.77;;;24.10;43.60;;;;;;5057997;27;93985;-57
2023/01/11 01:05:18;;;;;;;1.13;0.70;;;24.10;43.70;;;;;;5058738;27;92177;-57
2023/01/11 01:07:46;;;;;;;1.03;0.57;;;24.00;44.30;;;;;;5058745;27;92232;-57
2023/01/11 01:10:15;;;;;;;1.53;0.70;;;23.90;43.70;;;;;;5057894;27;94333;-57
2023/01/11 01:15:29;;;;;;;1.23;1.13;;;23.70;43.70;;;;;;5037113;27;92052;-58
2023/01/11 01:17:58;;;;;;;4.57;3.03;;;23.70;44.00;;;;;;5056087;27;92042;-58
2023/01/11 01:20:26;;;;;;;4.53;3.77;;;23.60;43.80;;;;;;5076476;27;95093;-57
2023/01/11 01:22:53;;;;;;;5.10;4.33;;;23.60;43.90;;;;;;5077343;27;94942;-57
2023/01/11 01:25:22;;;;;;;4.03;2.73;;;23.60;44.00;;;;;;5068996;27;93651;-57
2023/01/11 01:27:50;;;;;;;10.97;2.60;;;23.70;44.00;;;;;;5056604;27;92435;-57
2023/01/11 01:30:18;;;;;;;7.73;2.63;;;23.70;44.00;;;;;;5058586;27;94343;-57
2023/01/11 01:32:47;;;;;;;6.07;2.63;;;23.80;44.00;;;;;;5074446;27;92064;-57
2023/01/11 01:35:15;;;;;;;2.57;1.87;;;23.90;43.90;;;;;;5079229;27;91991;-57
2023/01/11 01:37:44;;;;;;;4.17;2.27;;;24.10;43.90;;;;;;5079785;27;91305;-57
2023/01/11 01:40:12;;;;;;;6.07;2.10;;;24.20;43.80;;;;;;5079285;27;93455;-57
2023/01/11 01:42:40;;;;;;;5.63;2.00;;;24.40;43.80;;;;;;5065178;27;93993;-58
2023/01/11 01:45:17;;;;;;;1.67;1.40;;;24.50;43.70;;;;;;5071043;27;92804;-57
2023/01/11 01:47:47;;;;;;;4.07;1.77;;;24.60;43.60;;;;;;5078924;27;92589;-58
2023/01/11 01:50:18;;;;;;;2.77;1.40;;;24.80;43.50;;;;;;5058972;27;94176;-57
2023/01/11 01:52:47;;;;;;;7.00;1.93;;;24.90;43.50;;;;;;5058608;27;92659;-57
2023/01/11 01:55:19;;;;;;;2.47;1.73;;;25.00;43.40;;;;;;5058889;27;92138;-57
2023/01/11 01:57:47;;;;;;;2.93;1.77;;;25.10;43.30;;;;;;5058878;27;92021;-57
2023/01/11 02:00:15;;;;;;;1.10;1.00;;;25.20;44.00;;;;;;5061711;27;93302;-57
2023/01/11 02:02:43;;;;;;;2.33;1.20;;;25.20;43.20;;;;;;5079318;27;92721;-57
2023/01/11 02:05:13;;;;;;;1.10;1.00;;;25.20;43.20;;;;;;5078916;27;91854;-57
2023/01/11 02:07:42;;;;;;;1.53;0.97;;;25.10;43.20;;;;;;5078961;27;93056;-57
2023/01/11 02:10:11;;;;;;;1.20;1.10;;;25.10;43.20;;;;;;5077846;27;95127;-57
2023/01/11 02:12:40;;;;;;;2.93;0.93;;;25.00;43.20;;;;;;5080654;27;94686;-57
2023/01/11 02:15:09;;;;;;;1.50;0.80;;;25.00;43.20;;;;;;5082776;27;92214;-57
2023/01/11 02:17:37;;;;;;;1.53;0.93;;;24.90;43.30;;;;;;5082952;27;92047;-57
2023/01/11 02:20:34;;;;;;;2.17;1.30;;;24.90;43.30;;;;;;5082885;27;93441;-57
2023/01/11 02:23:35;;;;;;;1.07;0.90;;;24.80;43.30;;;;;;5082447;27;94015;-57
2023/01/11 02:26:47;;;;;;;1.27;0.90;;;24.70;43.40;;;;;;5082541;27;91862;-58
2023/01/11 02:29:22;;;;;;;1.57;1.20;;;24.60;43.40;;;;;;5082883;27;91057;-57
2023/01/11 02:31:52;;;;;;;3.17;1.33;;;24.50;44.00;;;;;;5082109;27;93021;-57
2023/01/11 02:34:30;;;;;;;4.80;1.07;;;24.50;43.40;;;;;;5082070;27;92968;-57
2023/01/11 02:37:04;;;;;;;1.33;1.00;;;24.40;43.40;;;;;;5076974;27;94918;-57
2023/01/11 02:39:34;;;;;;;2.23;1.13;;;24.30;43.50;;;;;;5042191;27;93524;-57
2023/01/11 02:45:01;;;;;;;1.33;1.10;;;24.20;43.50;;;;;;5073723;27;92786;-57
2023/01/11 02:47:33;;;;;;;1.70;1.20;;;24.10;44.20;;;;;;5062011;27;92047;-57
2023/01/11 02:50:05;;;;;;;0.73;0.73;;;24.10;43.60;;;;;;5061730;27;92193;-57
2023/01/11 02:52:36;;;;;;;1.10;1.00;;;24.00;44.20;;;;;;5061487;27;93135;-57
2023/01/11 02:55:04;;;;;;;0.97;0.83;;;23.90;43.60;;;;;;5061372;27;93822;-57
2023/01/11 02:57:33;;;;;;;1.70;0.90;;;23.90;43.60;;;;;;5073810;27;92054;-58
2023/01/11 03:00:02;;;;;;;1.77;0.80;;;23.80;43.60;;;;;;5082033;27;92068;-57
2023/01/11 03:02:30;;;;;;;0.80;0.60;;;23.80;43.70;;;;;;5081384;27;95098;-57
2023/01/11 03:04:58;;;;;;;0.40;0.40;;;23.80;43.70;;;;;;5081338;27;93996;-57
2023/01/11 03:07:37;;;;;;;1.00;0.90;;;23.70;43.70;;;;;;5082014;27;92086;-57
2023/01/11 03:10:16;;;;;;;1.60;0.57;;;23.70;43.80;;;;;;5075968;27;92100;-58
2023/01/11 03:12:53;;;;;;;2.17;0.80;;;23.60;43.70;;;;;;5060991;27;94161;-57
2023/01/11 03:15:49;;;;;;;1.20;0.63;;;23.60;43.80;;;;;;5061238;27;92779;-57
2023/01/11 03:18:27;;;;;;;1.07;0.70;;;23.50;43.80;;;;;;5041124;27;92054;-58
2023/01/11 03:21:02;;;;;;;1.10;0.73;;;23.50;43.80;;;;;;5041672;28;91347;-59
2023/01/11 03:23:33;;;;;;;0.90;0.50;;;23.50;43.80;;;;;;5045298;27;93205;-58
2023/01/11 03:26:02;;;;;;;0.60;0.60;;;23.40;43.80;;;;;;5060854;27;93871;-56
2023/01/11 03:28:34;;;;;;;1.17;0.80;;;23.40;43.90;;;;;;5040551;27;92991;-58
2023/01/11 03:31:07;;;;;;;1.87;1.00;;;23.50;44.00;;;;;;5040680;27;92040;-57
2023/01/11 03:33:37;;;;;;;0.83;0.50;;;23.30;43.90;;;;;;5040014;27;93930;-56
2023/01/11 03:36:09;;;;;;;1.07;0.70;;;23.30;43.90;;;;;;5040166;27;92855;-56
2023/01/11 03:38:37;;;;;;;2.20;0.70;;;23.30;43.90;;;;;;5042899;27;93724;-58
2023/01/11 03:41:06;;;;;;;0.87;0.73;;;23.20;43.90;;;;;;5069079;27;92023;-57
2023/01/11 03:43:35;;;;;;;0.70;0.60;;;23.20;43.90;;;;;;5080955;27;93159;-57
2023/01/11 03:46:06;;;;;;;0.30;0.30;;;23.20;44.00;;;;;;5064633;27;92747;-57
2023/01/11 03:48:36;;;;;;;2.67;0.60;;;23.20;44.00;;;;;;5080707;27;92304;-57
2023/01/11 03:51:05;;;;;;;0.53;0.47;;;23.10;43.90;;;;;;5077964;27;92153;-57
2023/01/11 03:53:35;;;;;;;1.10;0.60;;;23.10;44.00;;;;;;5061213;27;95333;-56
2023/01/11 03:56:03;;;;;;;0.83;0.70;;;23.10;44.00;;;;;;5072116;27;94722;-56
2023/01/11 03:58:31;;;;;;;1.83;0.47;;;23.10;44.10;;;;;;5061662;27;92026;-57
2023/01/11 04:00:59;;;;;;;0.77;0.40;;;23.10;44.10;;;;;;5063120;27;91998;-57
2023/01/11 04:03:29;;;;;;;0.47;0.47;;;23.00;44.00;;;;;;5078670;27;93951;-58
2023/01/11 04:05:58;;;;;;;0.50;0.50;;;23.00;44.00;;;;;;5080288;27;92976;-58
2023/01/11 04:08:26;;;;;;;0.50;0.50;;;23.00;44.00;;;;;;5078953;27;92103;-58
2023/01/11 04:10:54;;;;;;;0.50;0.50;;;23.00;44.10;;;;;;5081303;27;91464;-57
2023/01/11 04:13:22;;;;;;;0.63;0.63;;;23.00;44.10;;;;;;5080658;27;94188;-58
2023/01/11 04:15:52;;;;;;;0.63;0.40;;;22.90;44.10;;;;;;5075022;27;92657;-57
2023/01/11 04:18:20;;;;;;;0.70;0.43;;;22.90;44.10;;;;;;5060017;27;92920;-57
2023/01/11 04:20:49;;;;;;;0.70;0.70;;;22.90;44.10;;;;;;5061687;27;92076;-57
2023/01/11 04:23:17;;;;;;;0.77;0.60;;;22.90;44.20;;;;;;5060839;27;92869;-59
2023/01/11 04:25:46;;;;;;;0.70;0.67;;;22.90;44.20;;;;;;5072545;27;92815;-57
2023/01/11 04:28:14;;;;;;;0.83;0.50;;;22.80;44.10;;;;;;5079087;27;91935;-57
2023/01/11 04:30:42;;;;;;;0.33;0.33;;;22.80;44.10;;;;;;5080389;27;92063;-57
2023/01/11 04:33:12;;;;;;;2.33;0.60;;;22.80;44.10;;;;;;5077903;27;94119;-58
2023/01/11 04:35:40;;;;;;;0.40;0.40;;;22.80;44.20;;;;;;5060633;27;93899;-59
2023/01/11 04:38:10;;;;;;;0.77;0.40;;;22.80;44.20;;;;;;5060260;27;92107;-58
2023/01/11 04:40:38;;;;;;;0.40;0.40;;;22.80;44.20;;;;;;5060708;27;91883;-59
2023/01/11 04:43:05;;;;;;;1.37;0.40;;;22.80;44.20;;;;;;5068952;27;94122;-58
2023/01/11 04:45:33;;;;;;;3.07;0.67;;;22.70;44.20;;;;;;5080392;27;93519;-59
2023/01/11 04:48:01;;;;;;;0.60;0.53;;;22.70;44.20;;;;;;5074006;27;92058;-59
2023/01/11 04:50:29;;;;;;;0.60;0.53;;;22.70;44.20;;;;;;5060910;27;92019;-57
2023/01/11 04:52:59;;;;;;;0.50;0.50;;;22.70;44.20;;;;;;5060774;27;94488;-56
2023/01/11 04:55:28;;;;;;;2.47;0.63;;;22.70;44.30;;;;;;5059709;27;94090;-59
2023/01/11 04:57:57;;;;;;;0.83;0.40;;;22.60;44.20;;;;;;5059664;27;91877;-58
2023/01/11 05:00:25;;;;;;;0.60;0.40;;;22.60;44.20;;;;;;5061193;27;91271;-57
2023/01/11 05:02:53;;;;;;;0.40;0.40;;;22.60;44.20;;;;;;5079477;27;94165;-57
2023/01/11 05:05:21;;;;;;;0.50;0.50;;;22.60;44.20;;;;;;5078955;27;92852;-58
2023/01/11 05:07:49;;;;;;;0.60;0.60;;;22.60;44.20;;;;;;5077762;27;92881;-57
2023/01/11 05:10:17;;;;;;;0.50;0.50;;;22.60;44.20;;;;;;5079390;27;92104;-57
2023/01/11 05:12:51;;;;;;;0.60;0.50;;;22.60;44.30;;;;;;5072097;27;94151;-59
2023/01/11 05:15:19;;;;;;;0.47;0.47;;;22.50;44.20;;;;;;5059368;27;92032;-57
2023/01/11 05:17:47;;;;;;;0.63;0.43;;;22.50;44.20;;;;;;5073447;27;92159;-58
2023/01/11 05:20:15;;;;;;;1.30;0.50;;;22.50;44.20;;;;;;5077578;27;92076;-57
2023/01/11 05:22:43;;;;;;;0.30;0.23;;;22.50;44.30;;;;;;5072680;27;94164;-58
2023/01/11 05:25:11;;;;;;;0.93;0.60;;;22.50;44.30;;;;;;5071658;27;92954;-57
2023/01/11 05:27:39;;;;;;;0.97;0.70;;;22.50;44.30;;;;;;5066441;27;92061;-57
2023/01/11 05:30:10;;;;;;;0.50;0.40;;;22.50;44.30;;;;;;5060796;27;91956;-57
2023/01/11 05:32:38;;;;;;;1.17;0.57;;;22.40;44.30;;;;;;5058327;27;95339;-58
2023/01/11 05:35:08;;;;;;;0.40;0.40;;;22.50;44.30;;;;;;5068646;27;94938;-58
2023/01/11 05:37:36;;;;;;;1.40;0.40;;;22.40;44.30;;;;;;5079084;27;91888;-57
2023/01/11 05:40:06;;;;;;;0.63;0.50;;;22.40;44.60;;;;;;5079576;27;91978;-59
2023/01/11 05:42:34;;;;;;;0.53;0.50;;;22.40;44.30;;;;;;5079168;27;97220;-57
2023/01/11 05:47:49;;;;;;;0.83;0.40;;;22.30;44.20;;;;;;5066893;27;92033;-58
2023/01/11 05:50:17;;;;;;;0.67;0.40;;;22.40;44.30;;;;;;5081700;27;91327;-58
2023/01/11 05:52:45;;;;;;;0.63;0.63;;;22.30;44.30;;;;;;5068238;27;94182;-57
2023/01/11 05:55:13;;;;;;;0.40;0.40;;;22.30;44.30;;;;;;5065075;27;92945;-58
2023/01/11 05:57:41;;;;;;;0.43;0.43;;;22.30;44.30;;;;;;5082239;27;92932;-57
2023/01/11 06:00:10;;;;;;;0.50;0.50;;;22.30;44.30;;;;;;5063936;27;91972;-57
2023/01/11 06:02:38;;;;;;;0.23;0.23;;;22.30;44.30;;;;;;5075954;27;93032;-58
2023/01/11 06:05:09;;;;;;;0.33;0.33;;;22.30;44.40;;;;;;5082298;27;94075;-58
2023/01/11 06:07:37;;;;;;;0.87;0.50;;;22.20;44.30;;;;;;5073892;27;91966;-58
2023/01/11 06:10:05;;;;;;;1.13;0.40;;;22.20;44.30;;;;;;5061956;27;92016;-58
2023/01/11 06:12:33;;;;;;;0.30;0.30;;;22.20;44.30;;;;;;5061934;27;93523;-58
2023/01/11 06:15:01;;;;;;;0.33;0.30;;;22.20;44.30;;;;;;5077847;27;93982;-58
2023/01/11 06:17:29;;;;;;;0.50;0.47;;;22.20;44.30;;;;;;5080992;27;92074;-58
2023/01/11 06:19:57;;;;;;;0.53;0.50;;;22.20;44.40;;;;;;5082407;27;92530;-58
2023/01/11 06:22:27;;;;;;;0.50;0.50;;;22.20;44.40;;;;;;5077760;27;95158;-57
2023/01/11 06:24:55;;;;;;;1.60;0.70;;;22.20;44.40;;;;;;5063995;27;94772;-57
2023/01/11 06:27:23;;;;;;;0.63;0.40;;;22.20;44.40;;;;;;5064106;27;92515;-58
2023/01/11 06:29:51;;;;;;;1.70;0.30;;;22.20;44.40;;;;;;5063587;27;92144;-58
2023/01/11 06:32:19;;;;;;;0.60;0.50;;;22.10;44.40;;;;;;5063934;27;94305;-58
2023/01/11 06:34:47;;;;;;;0.60;0.60;;;22.10;44.40;;;;;;5080008;27;93101;-57
2023/01/11 06:37:15;;;;;;;1.20;0.50;;;22.10;44.40;;;;;;5061789;27;92072;-58
2023/01/11 06:39:44;;;;;;;2.20;0.50;;;22.10;44.40;;;;;;5062186;27;91372;-57
2023/01/11 06:42:13;;;;;;;0.10;0.10;;;22.10;45.10;;;;;;5061485;27;94191;-57
2023/01/11 06:44:41;;;;;;;0.40;0.40;;;22.10;44.40;;;;;;5061407;27;93750;-57
2023/01/11 06:47:09;;;;;;;1.63;0.60;;;22.10;44.40;;;;;;5062201;27;92939;-57
2023/01/11 06:49:37;;;;;;;0.50;0.40;;;22.00;44.40;;;;;;5077982;27;92065;-57
2023/01/11 06:52:05;;;;;;;0.30;0.30;;;22.00;45.10;;;;;;5078126;27;94417;-58
2023/01/11 06:54:33;;;;;;;0.37;0.37;;;22.00;44.40;;;;;;5061912;27;93837;-58
2023/01/11 06:57:02;;;;;;;0.30;0.30;;;22.00;44.40;;;;;;5061511;27;91920;-57
2023/01/11 06:59:30;;;;;;;0.20;0.20;;;22.00;44.40;;;;;;5061208;27;92008;-58
2023/01/11 07:01:58;;;;;;;0.93;0.53;;;22.00;44.40;;;;;;5060957;27;94203;-57
2023/01/11 07:04:27;;;;;;;0.70;0.50;;;22.00;44.40;;;;;;5061720;27;92884;-57
2023/01/11 07:06:55;;;;;;;0.30;0.30;;;22.00;44.40;;;;;;5062523;27;92899;-57
2023/01/11 07:09:23;;;;;;;0.77;0.30;;;21.90;44.40;;;;;;5060945;27;92460;-57
2023/01/11 07:11:51;;;;;;;1.70;0.30;;;21.90;44.40;;;;;;5060029;27;95188;-58
2023/01/11 07:14:20;;;;;;;3.30;0.37;;;21.90;44.40;;;;;;5070464;27;94871;-59
2023/01/11 07:16:48;;;;;;;0.30;0.30;;;21.90;44.50;;;;;;5081490;27;91985;-59
2023/01/11 07:19:17;;;;;;;0.57;0.50;;;21.90;44.40;;;;;;5081378;27;92092;-59
2023/01/11 07:21:45;;;;;;;0.40;0.40;;;21.90;44.50;;;;;;5081052;27;94312;-57
2023/01/11 07:24:13;;;;;;;0.20;0.20;;;21.90;44.50;;;;;;5077256;27;93849;-59
2023/01/11 07:26:42;;;;;;;0.23;0.23;;;21.90;44.50;;;;;;5078632;27;92580;-60
2023/01/11 07:29:10;;;;;;;0.50;0.50;;;21.90;44.50;;;;;;5070138;27;91427;-57
2023/01/11 07:31:39;;;;;;;1.43;0.50;;;21.80;44.40;;;;;;5061014;27;93002;-61
2023/01/11 07:34:08;;;;;;;0.87;0.40;;;21.90;44.50;;;;;;5055122;27;93045;-60
2023/01/11 07:36:38;;;;;;;0.50;0.40;;;21.80;44.50;;;;;;5063007;27;92862;-60
2023/01/11 07:39:06;;;;;;;0.43;0.43;;;21.80;44.50;;;;;;5071488;27;92066;-60
2023/01/11 07:44:34;;;;;;;1.00;0.50;;;21.80;44.50;;;;;;5017307;28;92777;-60
2023/01/11 07:47:04;;;;;;;0.73;0.50;;;21.80;44.50;;;;;;5018170;28;92162;-60
2023/01/11 07:49:32;;;;;;;0.97;0.47;;;21.80;44.60;;;;;;5022843;27;92247;-59
2023/01/11 07:52:00;;;;;;;1.27;0.30;;;21.70;44.50;;;;;;5061456;27;93133;-59
2023/01/11 07:54:28;;;;;;;0.47;0.40;;;21.80;44.60;;;;;;5060163;27;93992;-59
2023/01/11 07:56:56;;;;;;;3.20;0.60;;;21.70;44.50;;;;;;5060511;27;91838;-59
2023/01/11 07:59:24;;;;;;;0.23;0.23;;;21.70;44.50;;;;;;5060386;27;92061;-59
2023/01/11 08:01:52;;;;;;;0.43;0.43;;;21.70;44.50;;;;;;5059924;27;95112;-59
2023/01/11 08:04:22;;;;;;;0.70;0.57;;;21.70;44.50;;;;;;5060584;27;94806;-59
2023/01/11 08:06:50;;;;;;;0.30;0.30;;;21.70;44.50;;;;;;5060854;27;91964;-59
2023/01/11 08:09:18;;;;;;;1.10;0.40;;;21.70;44.60;;;;;;5059398;27;92119;-59
2023/01/11 08:14:40;;;;;;;1.90;0.60;;;21.70;44.60;;;;;;5059945;27;92837;-59
2023/01/11 08:17:09;;;;;;;0.33;0.33;;;21.60;44.60;;;;;;5040322;27;92061;-59
2023/01/11 08:19:38;;;;;;;0.53;0.50;;;21.60;44.50;;;;;;5047750;27;91263;-59
2023/01/11 08:22:06;;;;;;;0.40;0.40;;;21.60;44.60;;;;;;5058901;27;93008;-59
2023/01/11 08:24:34;;;;;;;0.20;0.20;;;21.70;44.60;;;;;;5056171;27;93958;-59
2023/01/11 08:27:03;;;;;;;2.87;0.30;;;21.70;44.60;;;;;;5037538;27;93371;-60
2023/01/11 08:29:31;;;;;;;0.67;0.50;;;21.60;44.60;;;;;;5036839;27;92018;-59
2023/01/11 08:31:59;;;;;;;2.20;0.80;;;21.70;44.60;;;;;;5037046;28;94152;-59
2023/01/11 08:34:28;;;;;;;2.10;0.50;;;21.70;44.60;;;;;;5036489;27;93873;-59
2023/01/11 08:37:00;;;;;;;0.20;0.20;;;21.90;44.60;;;;;;5037403;27;92385;-59
2023/01/11 08:39:29;;;;;;;0.73;0.50;;;22.00;44.60;;;;;;5037698;28;92193;-59
2023/01/11 08:41:57;;;;;;;0.37;0.30;;;22.10;44.50;;;;;;5036969;27;93667;-57
2023/01/11 08:44:25;;;;;;;2.47;0.60;;;22.30;44.40;;;;;;5039760;28;93833;-58
2023/01/11 08:47:01;;;;;;;0.40;0.40;;;22.50;44.40;;;;;;5039892;27;92075;-57
2023/01/11 08:49:30;;;;;;;0.40;0.40;;;22.70;44.20;;;;;;5039925;28;91871;-58
2023/01/11 08:51:59;;;;;;;0.70;0.60;;;22.90;44.20;;;;;;5038662;27;95508;-57
2023/01/11 08:54:27;;;;;;;0.37;0.30;;;23.10;44.10;;;;;;5038919;27;93880;-57
2023/01/11 08:56:55;;;;;;;0.30;0.30;;;23.30;43.90;;;;;;5039665;28;92109;-57
2023/01/11 08:59:23;;;;;;;0.73;0.73;;;23.50;43.80;;;;;;5039373;27;92108;-58
2023/01/11 09:01:51;;;;;;;1.93;0.53;;;23.70;43.70;;;;;;5038809;28;94159;-57
2023/01/11 09:04:19;;;;;;;1.17;0.77;;;23.90;43.70;;;;;;5039081;27;93950;-58
2023/01/11 09:06:52;;;;;;;1.10;0.40;;;24.00;43.50;;;;;;5039224;27;92075;-57
2023/01/11 09:09:21;;;;;;;1.13;0.70;;;24.20;43.50;;;;;;5039922;28;91273;-57
2023/01/11 09:11:55;;;;;;;0.30;0.30;;;24.40;43.50;;;;;;5037793;28;94442;-57
2023/01/11 09:14:25;;;;;;;1.23;0.47;;;24.50;43.40;;;;;;5038624;27;92618;-57
2023/01/11 09:16:53;;;;;;;0.30;0.30;;;24.60;43.30;;;;;;5038736;27;92861;-57
2023/01/11 09:19:22;;;;;;;1.40;0.40;;;24.70;43.20;;;;;;5038954;28;92017;-57
2023/01/11 09:21:50;;;;;;;0.30;0.30;;;24.90;43.20;;;;;;5038420;28;93327;-57
2023/01/11 09:24:18;;;;;;;1.30;0.30;;;25.00;43.10;;;;;;5038186;27;93910;-57
2023/01/11 09:26:47;;;;;;;2.17;0.60;;;25.00;43.00;;;;;;5038761;28;91949;-57
2023/01/11 09:29:15;;;;;;;1.20;0.23;;;25.10;42.90;;;;;;5039179;27;92003;-57
2023/01/11 09:31:44;;;;;;;0.57;0.30;;;25.10;42.80;;;;;;5038600;28;94152;-57
2023/01/11 09:34:12;;;;;;;2.93;0.50;;;25.20;42.90;;;;;;5039398;28;94458;-58
2023/01/11 09:36:40;;;;;;;2.67;0.30;;;25.10;42.80;;;;;;5039172;27;92423;-57
2023/01/11 09:39:11;;;;;;;1.20;0.53;;;25.10;42.80;;;;;;5039088;28;92089;-57
2023/01/11 09:42:13;;;;;;;0.40;0.40;;;25.10;42.80;;;;;;5038193;27;93894;-57
2023/01/11 09:44:49;;;;;;;1.70;0.30;;;25.10;42.80;;;;;;5032620;27;93909;-57
2023/01/11 09:47:20;;;;;;;0.80;0.40;;;25.20;42.70;;;;;;5039179;28;92178;-58
2023/01/11 09:49:53;;;;;;;0.50;0.40;;;25.30;42.60;;;;;;5038583;28;92117;-58
2023/01/11 09:52:25;;;;;;;0.30;0.30;;;25.40;42.60;;;;;;5038279;27;94119;-57
2023/01/11 09:54:53;;;;;;;0.27;0.27;;;25.50;42.50;;;;;;5038238;27;94002;-58
2023/01/11 09:57:26;;;;;;;0.20;0.20;;;25.70;42.40;;;;;;5038648;28;91998;-57
2023/01/11 10:00:00;;;;;;;1.57;0.70;;;25.80;42.30;;;;;;5038719;28;91353;-57
2023/01/11 10:02:34;;;;;;;0.37;0.33;;;25.90;42.20;;;;;;5037851;27;93309;-57
2023/01/11 10:05:41;;;;;;;0.40;0.30;;;26.00;42.10;;;;;;5038249;27;92810;-58
2023/01/11 10:08:26;;;;;;;1.30;0.60;;;26.10;42.00;;;;;;5022909;27;92995;-57
2023/01/11 10:11:23;;;;;;;0.83;0.40;;;26.20;42.00;;;;;;5037786;27;92041;-57
2023/01/11 10:14:20;;;;;;;2.93;0.50;;;26.30;41.90;;;;;;5037778;28;92687;-57
2023/01/11 10:17:16;;;;;;;2.77;0.57;;;26.40;41.70;;;;;;5037699;27;92497;-57
2023/01/11 10:20:10;;;;;;;0.60;0.43;;;26.50;41.70;;;;;;5038372;28;92394;-57
2023/01/11 10:22:41;;;;;;;0.93;0.57;;;26.60;41.60;;;;;;5037896;28;92039;-57
2023/01/11 10:25:17;;;;;;;1.13;0.40;;;26.60;41.50;;;;;;5037807;28;94141;-57
2023/01/11 10:27:52;;;;;;;0.20;0.20;;;26.70;41.50;;;;;;5038412;28;93801;-57
2023/01/11 10:30:39;;;;;;;0.43;0.37;;;26.70;41.50;;;;;;5038298;27;92199;-56
2023/01/11 10:33:27;;;;;;;7.60;1.00;;;26.70;41.50;;;;;;5039419;27;92158;-56
2023/01/11 10:36:13;;;;;;;0.20;0.20;;;26.70;41.50;;;;;;5040809;27;94108;-58
2023/01/11 10:38:56;;;;;;;0.40;0.40;;;26.60;41.40;;;;;;5041358;27;93886;-57
2023/01/11 10:41:32;;;;;;;0.97;0.50;;;26.50;41.50;;;;;;5041636;27;92408;-57
2023/01/11 10:44:10;;;;;;;0.93;0.40;;;26.50;41.60;;;;;;5041624;28;92165;-57
2023/01/11 10:46:39;;;;;;;0.20;0.20;;;26.40;41.60;;;;;;5040884;28;91964;-57
2023/01/11 10:49:24;;;;;;;1.67;0.40;;;26.30;41.70;;;;;;5041142;27;92994;-57
2023/01/11 10:51:54;;;;;;;0.57;0.30;;;26.20;41.70;;;;;;5041567;27;92037;-56
2023/01/11 10:54:24;;;;;;;1.57;0.53;;;26.20;41.80;;;;;;5041666;28;91447;-57
2023/01/11 10:56:58;;;;;;;0.37;0.20;;;26.00;41.80;;;;;;5041656;27;94064;-57
2023/01/11 10:59:39;;;;;;;1.40;0.30;;;26.00;41.90;;;;;;5058489;27;93896;-57
2023/01/11 11:02:13;;;;;;;1.97;0.50;;;25.90;41.90;;;;;;5061181;27;92979;-57
2023/01/11 11:04:58;;;;;;;0.63;0.30;;;25.80;42.00;;;;;;5061748;27;92064;-57
2023/01/11 11:07:31;;;;;;;0.67;0.43;;;25.70;42.00;;;;;;5060950;27;94309;-59
2023/01/11 11:10:03;;;;;;;2.27;0.73;;;25.70;42.70;;;;;;5061166;27;93805;-58
2023/01/11 11:12:31;;;;;;;0.40;0.40;;;25.70;42.10;;;;;;5061430;27;92110;-57
2023/01/11 11:15:03;;;;;;;0.33;0.33;;;25.70;42.00;;;;;;5061195;27;92021;-57
2023/01/11 11:17:31;;;;;;;0.20;0.20;;;25.80;42.70;;;;;;5061221;27;96716;-58
2023/01/11 11:20:01;;;;;;;0.30;0.30;;;25.90;42.00;;;;;;5060951;27;92824;-58
2023/01/11 11:22:29;;;;;;;0.30;0.30;;;26.00;41.90;;;;;;5061175;27;92037;-57
2023/01/11 11:24:59;;;;;;;0.23;0.23;;;26.20;42.00;;;;;;5060632;27;91997;-57
2023/01/11 11:27:30;;;;;;;1.90;0.50;;;26.30;41.90;;;;;;5060409;27;95232;-58
2023/01/11 11:29:58;;;;;;;0.30;0.30;;;26.40;41.80;;;;;;5060743;27;94695;-58
2023/01/11 11:32:27;;;;;;;2.23;0.47;;;26.50;41.70;;;;;;5061310;27;92025;-57
2023/01/11 11:34:56;;;;;;;0.93;0.43;;;26.70;41.70;;;;;;5061029;27;91979;-58
2023/01/11 11:37:27;;;;;;;1.00;0.40;;;26.80;41.60;;;;;;5052822;27;94177;-58
2023/01/11 11:39:55;;;;;;;0.30;0.30;;;26.90;41.60;;;;;;5060633;27;93938;-57
2023/01/11 11:42:24;;;;;;;0.73;0.60;;;27.00;41.50;;;;;;5060972;27;92030;-58
2023/01/11 11:45:12;;;;;;;1.67;0.50;;;27.00;41.50;;;;;;5059712;27;91355;-57
2023/01/11 11:47:42;;;;;;;0.47;0.43;;;27.00;41.50;;;;;;5060109;27;94500;-57
2023/01/11 11:50:24;;;;;;;0.20;0.20;;;27.00;41.60;;;;;;5060480;27;93996;-57
2023/01/11 11:53:26;;;;;;;0.50;0.50;;;27.00;41.70;;;;;;5055451;27;92896;-56
2023/01/11 11:55:54;;;;;;;4.43;0.73;;;27.00;41.80;;;;;;5040622;27;92050;-56
2023/01/11 11:58:23;;;;;;;1.50;0.40;;;27.00;42.50;;;;;;5048039;27;94231;-56
2023/01/11 12:00:52;;;;;;;3.33;0.90;;;26.90;41.90;;;;;;5056684;27;93667;-56
2023/01/11 12:03:21;;;;;;;0.63;0.60;;;26.90;41.90;;;;;;5048867;27;92617;-56
2023/01/11 12:05:51;;;;;;;1.33;0.60;;;27.00;42.00;;;;;;5060237;27;92148;-56
2023/01/11 12:08:21;;;;;;;2.47;0.40;;;27.10;42.10;;;;;;5059937;27;94054;-57
2023/01/11 12:10:51;;;;;;;0.90;0.60;;;27.10;42.00;;;;;;5060132;27;94002;-57
2023/01/11 12:13:33;;;;;;;5.97;0.73;;;27.20;42.00;;;;;;5060430;27;92106;-56
2023/01/11 12:16:01;;;;;;;1.40;0.50;;;27.30;41.90;;;;;;5060302;27;91949;-56
2023/01/11 12:18:32;;;;;;;3.30;0.50;;;27.40;41.80;;;;;;5059029;27;95023;-56
2023/01/11 12:21:18;;;;;;;1.37;0.40;;;27.50;41.80;;;;;;5059960;27;94952;-56
2023/01/11 12:23:48;;;;;;;0.40;0.40;;;27.60;41.70;;;;;;5058489;27;91986;-56
2023/01/11 12:26:21;;;;;;;1.27;0.40;;;27.60;41.60;;;;;;5059149;27;92136;-56
2023/01/11 12:29:00;;;;;;;0.33;0.30;;;27.70;41.60;;;;;;5059540;27;93220;-57
2023/01/11 12:31:31;;;;;;;1.37;0.50;;;27.70;41.60;;;;;;5059309;27;92944;-56
2023/01/11 12:34:02;;;;;;;0.70;0.40;;;27.70;41.50;;;;;;5060159;27;92035;-56
2023/01/11 12:36:32;;;;;;;0.40;0.40;;;27.70;41.50;;;;;;5060271;27;91276;-56
2023/01/11 12:39:04;;;;;;;2.30;0.67;;;27.70;41.60;;;;;;5058920;27;93525;-57
2023/01/11 12:41:46;;;;;;;0.60;0.40;;;27.70;41.50;;;;;;5059286;27;93920;-58
2023/01/11 12:44:18;;;;;;;2.40;0.37;;;27.80;41.50;;;;;;5059516;27;92987;-57
2023/01/11 12:46:55;;;;;;;1.30;0.30;;;27.90;41.50;;;;;;5060325;27;92201;-57
2023/01/11 12:49:29;;;;;;;0.63;0.57;;;27.90;41.30;;;;;;5059898;27;94158;-57
2023/01/11 12:52:06;;;;;;;1.37;0.37;;;28.10;41.40;;;;;;5059514;27;92786;-57
2023/01/11 12:54:50;;;;;;;1.00;0.57;;;28.20;41.20;;;;;;5059224;27;92089;-56
2023/01/11 12:57:21;;;;;;;2.03;0.33;;;28.30;41.20;;;;;;5059225;27;92095;-58
2023/01/11 13:00:12;;;;;;;2.03;0.50;;;28.40;41.10;;;;;;5058720;27;94276;-57
2023/01/11 13:02:57;;;;;;;0.30;0.20;;;28.40;41.00;;;;;;5059386;27;91730;-57
2023/01/11 13:05:27;;;;;;;0.57;0.50;;;28.50;40.80;;;;;;5059634;27;92041;-56
2023/01/11 13:08:01;;;;;;;2.03;0.53;;;28.60;40.80;;;;;;5059612;27;92132;-57
2023/01/11 13:10:36;;;;;;;0.60;0.60;;;28.70;40.80;;;;;;5058393;27;95160;-56
2023/01/11 13:13:09;;;;;;;0.40;0.40;;;28.70;40.70;;;;;;5059042;27;95141;-57
2023/01/11 13:15:43;;;;;;;0.37;0.30;;;28.60;40.60;;;;;;5059639;27;92195;-57
2023/01/11 13:18:18;;;;;;;0.40;0.40;;;28.60;40.70;;;;;;5059514;27;92095;-57
2023/01/11 13:20:49;;;;;;;1.43;0.30;;;28.50;40.60;;;;;;5059275;27;94238;-56
2023/01/11 13:23:33;;;;;;;1.03;0.50;;;28.40;40.70;;;;;;5058460;27;92951;-57
2023/01/11 13:26:09;;;;;;;3.83;0.53;;;28.40;40.70;;;;;;5059266;27;92070;-57
2023/01/11 13:28:38;;;;;;;0.63;0.47;;;28.30;40.70;;;;;;5058766;27;91430;-57